Aviation Digital Data Service (ADDS)

Output produced by METARs form (1157 UTC 21 June 2018)
found at http://www.aviationweather.gov/adds/metars/
 
TAF LOWW 211115Z 2112/2218 22005KT CAVOK TX33/2115Z TN16/2206Z 
     BECMG 2114/2116 27010KT 9999 FEW060CB SCT300 
     TEMPO 2118/2123 32015KT SHRA FEW040CB BKN050 
     PROB30 
     TEMPO 2118/2121 33020G35KT 6000 TSRA 
     FM212300 33018G28KT 9999 FEW050 SCT070 
     PROB30 
     TEMPO 2216/2218 34025G35KT SHRA BKN050 FEW055CB